Time;durP1;ratioP1;P1;durP2;ratioP2;P2;SDS_P1;SDS_P2;PMS_P1;PMS_P2;Temp;Humidity;BMP_temperature;BMP_pressure;BME280_temperature;BME280_humidity;BME280_pressure;Samples;Min_cycle;Max_cycle;Signal;HPM_P1;HPM_P2
2022/08/12 00:43:48;;;;;;;7.72;3.30;;;;;;;20.93;52.72;101871.63;5054592;28;20094;-49
2022/08/12 00:46:31;;;;;;;9.60;3.30;;;;;;;20.93;52.87;101873.50;5034488;28;20059;-49
2022/08/12 00:48:57;;;;;;;7.65;3.28;;;;;;;20.88;52.91;101876.00;5035182;28;20498;-50
2022/08/12 00:52:04;;;;;;;6.68;3.38;;;;;;;20.87;52.89;101875.13;5049030;28;20016;-49
2022/08/12 00:54:09;;;;;;;8.05;3.85;;;;;;;20.83;52.79;101871.19;5055368;28;20127;-49
2022/08/12 00:56:37;;;;;;;5.38;3.78;;;;;;;20.75;54.15;101872.19;5056267;28;20100;-46
2022/08/12 00:59:03;;;;;;;9.35;3.75;;;;;;;20.76;53.56;101870.31;5054963;28;20422;-46
2022/08/12 01:01:29;;;;;;;6.93;4.00;;;;;;;20.70;54.33;101868.41;5047540;28;20036;-49
2022/08/12 01:12:11;;;;;;;5.82;3.70;;;;;;;20.54;55.52;101880.44;5047898;28;20046;-45
2022/08/12 01:14:38;;;;;;;5.00;3.40;;;;;;;20.47;55.89;101872.25;5040441;28;20043;-46
2022/08/12 01:17:04;;;;;;;7.85;3.33;;;;;;;20.44;55.43;101870.78;5048799;28;20127;-49
2022/08/12 01:19:30;;;;;;;7.80;3.50;;;;;;;20.38;55.58;101877.00;5051128;28;20137;-49
2022/08/12 01:22:15;;;;;;;6.93;3.78;;;;;;;20.37;56.15;101877.22;5041378;28;20086;-46
2022/08/12 01:24:52;;;;;;;8.73;3.75;;;;;;;20.40;56.29;101876.81;5055391;28;20286;-48
2022/08/12 01:27:18;;;;;;;9.27;3.67;;;;;;;20.36;56.59;101873.66;5041645;28;20465;-48
2022/08/12 01:29:47;;;;;;;7.05;3.45;;;;;;;20.33;56.58;101867.81;5055176;28;20021;-48
2022/08/12 01:32:14;;;;;;;7.35;3.72;;;;;;;20.24;56.68;101869.84;5051184;28;20108;-50
2022/08/12 01:35:00;;;;;;;4.85;3.47;;;;;;;20.27;56.31;101870.28;5053719;28;20029;-47
2022/08/12 01:37:26;;;;;;;3.80;3.35;;;;;;;20.16;57.67;101875.44;5040005;28;20028;-48
2022/08/12 01:39:56;;;;;;;22.92;4.45;;;;;;;20.07;57.93;101874.75;5042786;28;20372;-47
2022/08/12 01:42:22;;;;;;;26.00;4.18;;;;;;;20.02;58.76;101874.50;5053604;28;20355;-49
2022/08/12 01:44:49;;;;;;;28.40;4.03;;;;;;;20.00;58.04;101874.72;5042563;28;20440;-49
2022/08/12 01:47:25;;;;;;;37.78;5.15;;;;;;;19.96;59.00;101869.88;5040074;28;20531;-49
2022/08/12 01:50:12;;;;;;;25.92;4.97;;;;;;;19.97;57.92;101869.69;5034963;28;20043;-48
2022/08/12 01:52:53;;;;;;;27.42;4.78;;;;;;;19.85;58.31;101866.69;5037442;28;20027;-49
2022/08/12 01:55:22;;;;;;;17.00;4.57;;;;;;;19.80;58.96;101865.59;5054399;28;20036;-48
2022/08/12 01:58:13;;;;;;;12.90;4.65;;;;;;;19.81;57.91;101865.41;5049465;28;20032;-50
2022/08/12 02:00:50;;;;;;;14.70;4.57;;;;;;;19.79;59.11;101858.50;5023519;28;20488;-50
2022/08/12 02:03:18;;;;;;;13.95;4.55;;;;;;;19.83;59.31;101847.06;5034986;28;20503;-50
2022/08/12 02:12:09;;;;;;;7.13;4.35;;;;;;;19.78;59.80;101856.84;5044504;28;20043;-44
2022/08/12 02:14:53;;;;;;;8.02;4.63;;;;;;;19.74;59.32;101859.06;5044525;28;20036;-47
2022/08/12 02:17:27;;;;;;;7.35;4.70;;;;;;;19.72;59.96;101851.13;5033461;28;20060;-48
2022/08/12 02:20:20;;;;;;;6.15;4.25;;;;;;;19.68;60.18;101852.56;5035867;28;20040;-46
2022/08/12 02:22:46;;;;;;;8.05;4.47;;;;;;;19.61;61.30;101851.66;5036880;28;20035;-46
2022/08/12 02:25:41;;;;;;;13.23;4.55;;;;;;;19.60;59.66;101846.44;5034569;28;20029;-46
2022/08/12 02:28:07;;;;;;;6.45;4.40;;;;;;;19.51;62.24;101849.28;5034237;28;20091;-46
2022/08/12 02:30:35;;;;;;;12.90;4.70;;;;;;;19.53;61.80;101851.81;5052963;28;20451;-47
2022/08/12 02:33:03;;;;;;;8.23;4.85;;;;;;;19.47;61.91;101855.31;5037070;28;20027;-46
2022/08/12 02:35:30;;;;;;;10.55;4.40;;;;;;;19.53;62.05;101851.81;5054866;28;20028;-44
2022/08/12 02:37:58;;;;;;;10.45;4.40;;;;;;;19.55;62.40;101850.59;5039741;28;20040;-45
2022/08/12 02:40:26;;;;;;;8.18;4.20;;;;;;;19.57;62.59;101842.28;5037042;28;20383;-47
2022/08/12 02:43:26;;;;;;;11.52;4.75;;;;;;;19.63;61.34;101848.75;5038646;28;20113;-47
2022/08/12 02:45:56;;;;;;;6.28;4.53;;;;;;;19.60;62.50;101843.72;5019484;28;20064;-47
2022/08/12 02:48:50;;;;;;;7.77;4.90;;;;;;;19.63;62.53;101849.59;5039989;28;20025;-45
2022/08/12 02:51:22;;;;;;;15.07;4.90;;;;;;;19.59;63.00;101839.38;5045667;28;20120;-44
2022/08/12 02:53:49;;;;;;;8.95;4.70;;;;;;;19.55;63.26;101850.59;5034409;28;20098;-45
2022/08/12 02:56:16;;;;;;;10.93;4.90;;;;;;;19.56;64.06;101840.59;5044806;28;20529;-47
2022/08/12 02:58:43;;;;;;;7.13;4.45;;;;;;;19.52;64.13;101844.72;5053340;28;20028;-47
2022/08/12 03:01:09;;;;;;;9.43;4.78;;;;;;;19.43;64.68;101845.88;5047714;28;20037;-46
2022/08/12 03:03:35;;;;;;;10.73;5.18;;;;;;;19.40;65.55;101849.84;5033022;28;20048;-50
2022/08/12 03:06:20;;;;;;;6.43;4.63;;;;;;;19.44;65.36;101845.69;5043228;28;20020;-48
2022/08/12 03:08:46;;;;;;;10.13;4.70;;;;;;;19.37;65.37;101845.63;5054661;28;20029;-50
2022/08/12 03:11:25;;;;;;;12.25;4.80;;;;;;;19.35;66.19;101845.00;5034509;28;20035;-50
2022/08/12 03:13:56;;;;;;;12.27;5.32;;;;;;;19.28;67.10;101844.09;5039343;28;20452;-47
2022/08/12 03:16:22;;;;;;;;;;;;;;;19.39;64.38;101842.75;5037432;28;20028;-49
2022/08/12 03:18:49;;;;;;;13.52;5.63;;;;;;;19.17;70.15;101840.03;5054875;28;19912;-50
2022/08/12 03:21:16;;;;;;;11.23;5.00;;;;;;;19.07;69.13;101835.97;5055468;28;20024;-48
2022/08/12 03:23:44;;;;;;;17.65;5.50;;;;;;;19.01;70.81;101843.03;5040604;28;20416;-50
2022/08/12 03:26:10;;;;;;;9.13;5.15;;;;;;;18.92;70.42;101831.44;5041726;28;20414;-49
2022/08/12 03:28:52;;;;;;;21.80;6.00;;;;;;;18.82;72.45;101834.50;5042221;28;20032;-49
2022/08/12 03:31:31;;;;;;;22.63;6.10;;;;;;;18.81;74.09;101830.06;5035355;28;20345;-46
2022/08/12 03:34:02;;;;;;;14.07;6.13;;;;;;;18.80;74.02;101830.25;5037596;28;20442;-48
2022/08/12 03:36:30;;;;;;;15.57;5.68;;;;;;;18.79;74.91;101825.91;5036927;28;20067;-48
2022/08/12 03:41:48;;;;;;;13.55;5.50;;;;;;;18.81;74.31;101826.53;5035834;28;20232;-47
2022/08/12 04:01:19;;;;;;;17.65;6.45;;;;;;;18.64;73.17;101834.03;5041492;28;20048;-46
2022/08/12 04:03:51;;;;;;;8.13;5.85;;;;;;;18.58;74.28;101832.09;5037623;28;20045;-46
2022/08/12 04:06:27;;;;;;;13.68;5.32;;;;;;;18.52;74.74;101833.69;5036623;28;20492;-46
2022/08/12 04:08:57;;;;;;;11.93;5.80;;;;;;;18.45;74.13;101838.19;5036692;28;20507;-47
2022/08/12 04:14:18;;;;;;;10.75;6.03;;;;;;;18.43;76.03;101840.22;5056235;28;20071;-47
2022/08/12 04:16:44;;;;;;;11.25;5.97;;;;;;;18.33;75.08;101826.16;5065369;28;20044;-45
2022/08/12 04:19:12;;;;;;;11.02;5.60;;;;;;;18.31;78.28;101836.34;5036422;28;20013;-48
2022/08/12 04:21:38;;;;;;;16.23;5.72;;;;;;;18.29;76.93;101833.81;5046259;28;20028;-45
2022/08/12 04:24:04;;;;;;;18.52;6.30;;;;;;;18.28;78.20;101837.56;5056358;28;20286;-46
2022/08/12 04:26:29;;;;;;;14.75;6.35;;;;;;;18.23;77.44;101835.41;5051670;28;20042;-45
2022/08/12 04:28:57;;;;;;;15.15;6.05;;;;;;;18.26;79.15;101836.88;5055883;28;20032;-48
2022/08/12 04:31:33;;;;;;;7.50;5.47;;;;;;;18.26;76.90;101840.44;5034778;28;20452;-48
2022/08/12 04:33:59;;;;;;;15.43;5.90;;;;;;;18.27;77.46;101830.47;5036557;28;20021;-50
2022/08/12 04:36:25;;;;;;;11.57;5.60;;;;;;;18.30;77.57;101835.50;5035943;28;20048;-46
2022/08/12 04:38:51;;;;;;;9.52;5.78;;;;;;;18.30;77.18;101835.50;5036636;28;20271;-48
2022/08/12 04:41:18;;;;;;;8.52;5.60;;;;;;;18.32;79.27;101835.31;5052469;28;20029;-46
2022/08/12 04:43:44;;;;;;;7.28;5.38;;;;;;;18.36;78.66;101834.72;5056167;28;20020;-45
2022/08/12 04:46:10;;;;;;;8.95;5.60;;;;;;;18.41;77.63;101836.88;5053797;28;20089;-48
2022/08/12 04:48:35;;;;;;;10.90;5.60;;;;;;;18.41;77.07;101835.03;5033802;28;20371;-46
2022/08/12 04:51:01;;;;;;;13.98;5.90;;;;;;;18.37;76.79;101836.41;5036331;28;20017;-48
2022/08/12 04:53:27;;;;;;;14.00;5.63;;;;;;;18.41;77.08;101845.00;5037700;28;20106;-46
2022/08/12 04:55:53;;;;;;;16.55;5.75;;;;;;;18.33;77.30;101835.13;5034399;28;20029;-46
2022/08/12 04:58:18;;;;;;;16.42;6.10;;;;;;;18.36;76.62;101836.59;5040465;28;20081;-47
2022/08/12 05:00:44;;;;;;;31.83;6.78;;;;;;;18.32;78.68;101835.31;5041015;28;20684;-47
2022/08/12 05:03:09;;;;;;;58.70;7.10;;;;;;;18.35;78.10;101834.94;5037424;28;20043;-47
2022/08/12 05:05:39;;;;;;;38.78;7.07;;;;;;;18.33;80.66;101839.69;5046550;28;20029;-48
2022/08/12 05:08:10;;;;;;;50.63;7.22;;;;;;;18.33;79.02;101831.56;5036172;28;20592;-50
2022/08/12 05:10:35;;;;;;;92.60;7.65;;;;;;;18.32;79.23;101838.84;5054296;28;20023;-47
2022/08/12 05:13:08;;;;;;;50.25;7.07;;;;;;;18.33;79.18;101836.97;5055168;28;20103;-46
2022/08/12 05:15:37;;;;;;;33.20;6.57;;;;;;;18.40;79.17;101841.47;5053932;28;20129;-47
2022/08/12 05:18:02;;;;;;;17.70;5.85;;;;;;;18.51;78.21;101839.28;5055178;28;20450;-48
2022/08/12 05:20:28;;;;;;;16.65;6.18;;;;;;;18.59;78.40;101837.31;5047112;28;20036;-49
2022/08/12 05:23:07;;;;;;;9.23;5.85;;;;;;;18.74;76.77;101842.69;5041773;28;20507;-47
2022/08/12 05:25:32;;;;;;;11.52;6.25;;;;;;;18.79;77.78;101842.97;5055362;28;20058;-47
2022/08/12 05:27:58;;;;;;;10.32;6.10;;;;;;;18.88;78.54;101843.69;5045586;28;20586;-48
2022/08/12 05:30:23;;;;;;;9.18;6.00;;;;;;;18.89;77.17;101839.13;5038628;28;20125;-49
2022/08/12 05:32:48;;;;;;;13.20;6.40;;;;;;;18.95;77.59;101841.91;5047766;28;20039;-47
2022/08/12 05:35:14;;;;;;;13.93;6.28;;;;;;;19.04;77.20;101844.47;5037867;28;20194;-45
2022/08/12 05:37:39;;;;;;;12.07;6.32;;;;;;;19.03;75.79;101849.06;5035169;28;20033;-45
2022/08/12 05:40:05;;;;;;;12.80;6.10;;;;;;;19.09;76.84;101858.28;5042528;28;20029;-48
2022/08/12 05:42:31;;;;;;;11.65;6.10;;;;;;;19.13;75.63;101851.47;5054496;28;20031;-49
2022/08/12 05:44:57;;;;;;;10.27;6.22;;;;;;;19.19;77.26;101856.94;5043473;28;20031;-49
2022/08/12 05:47:22;;;;;;;10.80;6.70;;;;;;;19.22;75.94;101855.72;5034399;28;20033;-47
2022/08/12 05:49:47;;;;;;;16.63;6.75;;;;;;;19.26;75.52;101856.16;5051290;28;20024;-47
2022/08/12 05:52:12;;;;;;;14.55;7.43;;;;;;;19.28;75.48;101860.38;5035936;28;20036;-47
2022/08/12 05:54:42;;;;;;;12.10;7.20;;;;;;;19.33;78.15;101859.75;5050234;28;20032;-47
2022/08/12 05:57:10;;;;;;;12.27;6.97;;;;;;;19.39;76.19;101859.81;5034258;28;20544;-47
2022/08/12 05:59:37;;;;;;;17.05;7.70;;;;;;;19.46;73.94;101859.06;5034651;28;20240;-48
2022/08/12 06:02:06;;;;;;;12.93;8.02;;;;;;;19.51;75.54;101864.72;5038414;28;20036;-49
2022/08/12 06:04:32;;;;;;;13.63;7.80;;;;;;;19.56;73.89;101865.81;5053076;28;20273;-46
2022/08/12 06:06:58;;;;;;;17.35;7.93;;;;;;;19.61;73.33;101864.38;5051276;28;20065;-46
2022/08/12 06:09:25;;;;;;;15.30;8.10;;;;;;;19.66;74.26;101862.75;5034976;28;20396;-50
2022/08/12 06:11:50;;;;;;;11.93;8.57;;;;;;;19.72;72.62;101863.84;5039001;28;20036;-45
2022/08/12 06:14:16;;;;;;;14.77;8.55;;;;;;;19.79;73.34;101870.19;5054685;28;20430;-45
2022/08/12 06:16:42;;;;;;;17.63;9.10;;;;;;;19.85;73.95;101872.09;5048904;28;20031;-48
2022/08/12 06:19:09;;;;;;;14.65;8.75;;;;;;;19.93;74.68;101871.94;5034674;28;20064;-49
2022/08/12 06:21:36;;;;;;;13.40;8.50;;;;;;;20.04;72.45;101875.16;5034728;28;20036;-47
2022/08/12 06:24:02;;;;;;;27.67;9.45;;;;;;;20.09;71.63;101872.69;5042664;28;20207;-49
2022/08/12 06:26:27;;;;;;;14.13;8.93;;;;;;;20.17;74.32;101866.25;5053403;28;20099;-48
2022/08/12 06:28:54;;;;;;;18.33;8.98;;;;;;;20.26;71.48;101865.88;5038450;28;20367;-50
2022/08/12 06:31:20;;;;;;;17.98;9.02;;;;;;;20.39;70.19;101867.00;5033253;28;20021;-47
2022/08/12 06:33:47;;;;;;;20.25;9.20;;;;;;;20.45;69.96;101867.03;5042925;28;20340;-49
2022/08/12 06:36:18;;;;;;;17.67;9.15;;;;;;;20.56;68.69;101871.03;5037358;28;20514;-49
2022/08/12 06:38:45;;;;;;;20.48;8.75;;;;;;;20.64;69.43;101864.66;5053706;28;20059;-46
2022/08/12 06:43:55;;;;;;;22.02;9.15;;;;;;;20.88;68.04;101868.69;5034318;28;20332;-47
2022/08/12 06:46:25;;;;;;;17.42;8.68;;;;;;;20.94;69.09;101864.31;5034460;28;20033;-49
2022/08/12 06:48:56;;;;;;;16.55;9.07;;;;;;;21.03;68.00;101863.91;5045003;28;20120;-49
2022/08/12 06:51:27;;;;;;;16.65;8.95;;;;;;;21.16;65.79;101856.81;5055681;28;20029;-51
2022/08/12 06:53:54;;;;;;;22.40;9.15;;;;;;;21.29;66.24;101861.44;5038512;28;20556;-51
2022/08/12 06:56:20;;;;;;;14.75;9.43;;;;;;;21.42;65.28;101873.16;5038110;28;20082;-49
2022/08/12 06:58:45;;;;;;;19.08;9.02;;;;;;;21.54;64.28;101867.97;5046333;28;20419;-51
2022/08/12 07:01:10;;;;;;;18.35;9.45;;;;;;;21.67;64.43;101863.56;5046045;28;20418;-48
2022/08/12 07:03:37;;;;;;;17.50;9.27;;;;;;;21.80;62.90;101860.84;5051887;28;20060;-46
2022/08/12 07:06:05;;;;;;;19.10;9.60;;;;;;;21.91;63.76;101859.34;5047493;28;20025;-47
2022/08/12 07:08:33;;;;;;;19.58;9.32;;;;;;;22.03;62.13;101860.38;5038535;28;20494;-46
2022/08/12 07:11:00;;;;;;;20.88;9.73;;;;;;;22.10;61.52;101860.38;5042404;28;20016;-45
2022/08/12 07:13:37;;;;;;;16.15;8.95;;;;;;;22.25;62.01;101854.66;5057781;28;20957;-49
2022/08/12 07:16:03;;;;;;;19.42;9.90;;;;;;;22.39;60.59;101856.31;5052306;28;20018;-45
2022/08/12 07:18:31;;;;;;;23.73;9.65;;;;;;;22.53;61.13;101851.66;5038128;28;20032;-46
2022/08/12 07:21:00;;;;;;;23.25;9.18;;;;;;;22.64;59.62;101853.72;5036736;28;20029;-49
2022/08/12 07:23:26;;;;;;;17.95;9.50;;;;;;;22.83;59.53;101859.28;5037644;28;20477;-49
2022/08/12 07:25:52;;;;;;;16.88;9.68;;;;;;;22.98;61.15;101867.97;5036720;28;20025;-46
2022/08/12 07:28:23;;;;;;;19.17;9.60;;;;;;;23.17;59.34;101873.56;5038127;28;20033;-50
2022/08/12 07:30:50;;;;;;;20.38;9.55;;;;;;;23.35;58.75;101867.31;5040924;28;20020;-49
2022/08/12 07:33:18;;;;;;;21.88;9.48;;;;;;;23.46;60.63;101875.63;5040754;28;20460;-49
2022/08/12 07:35:46;;;;;;;16.90;9.02;;;;;;;23.64;60.29;101871.25;5040311;28;20028;-50
2022/08/12 07:38:24;;;;;;;16.33;8.48;;;;;;;23.81;58.75;101877.88;5054515;28;20145;-48
2022/08/12 07:41:04;;;;;;;22.15;8.82;;;;;;;24.03;58.16;101885.63;5050204;28;20117;-50
2022/08/12 07:43:32;;;;;;;23.77;9.25;;;;;;;24.10;56.46;101877.34;5058162;28;20044;-49
2022/08/12 07:45:59;;;;;;;37.05;9.02;;;;;;;24.18;57.04;101877.06;5040236;28;20388;-49
2022/08/12 07:48:25;;;;;;;18.35;8.65;;;;;;;24.30;54.84;101883.44;5037592;28;20591;-47
2022/08/12 07:50:52;;;;;;;14.60;8.70;;;;;;;24.44;56.34;101886.00;5054861;28;20317;-46
2022/08/12 07:53:19;;;;;;;15.57;8.30;;;;;;;24.64;57.85;101881.16;5041468;28;20031;-46
2022/08/12 07:55:45;;;;;;;23.10;8.88;;;;;;;24.74;53.85;101875.97;5036436;28;20381;-47
2022/08/12 07:58:10;;;;;;;13.45;8.20;;;;;;;24.94;53.89;101881.16;5035677;28;20039;-48
2022/08/12 08:00:39;;;;;;;17.67;7.88;;;;;;;25.10;52.37;101879.69;5035621;28;20033;-46
2022/08/12 08:03:06;;;;;;;15.40;7.60;;;;;;;25.26;52.53;101878.22;5036220;28;20130;-48
2022/08/12 08:05:37;;;;;;;16.50;6.90;;;;;;;25.34;52.16;101882.53;5038597;28;20447;-47
2022/08/12 08:08:21;;;;;;;21.30;8.43;;;;;;;25.45;52.16;101878.94;5057676;28;20249;-47
2022/08/12 08:10:48;;;;;;;23.95;7.78;;;;;;;25.54;50.91;101878.59;5042204;28;20035;-49
2022/08/12 08:13:14;;;;;;;27.15;7.85;;;;;;;25.66;50.46;101885.78;5036641;28;20066;-49
2022/08/12 08:15:40;;;;;;;14.18;7.25;;;;;;;25.81;49.42;101881.72;5051268;28;20036;-50
2022/08/12 08:18:10;;;;;;;16.67;6.72;;;;;;;25.92;50.65;101882.78;5054338;28;20029;-50
2022/08/12 08:20:40;;;;;;;21.58;7.30;;;;;;;26.07;48.31;101883.19;5042137;28;20035;-50
2022/08/12 08:23:08;;;;;;;17.80;6.43;;;;;;;26.18;48.10;101876.00;5056896;28;20198;-50
2022/08/12 08:25:37;;;;;;;21.38;6.20;;;;;;;26.33;49.06;101884.53;5043584;28;20032;-49
2022/08/12 08:28:15;;;;;;;10.38;6.45;;;;;;;26.42;47.51;101887.72;5036204;28;20476;-49
2022/08/12 08:30:44;;;;;;;13.80;5.75;;;;;;;26.59;48.67;101887.81;5037571;28;20644;-48
2022/08/12 08:33:11;;;;;;;16.52;6.25;;;;;;;26.74;50.80;101890.88;5056644;28;20065;-47
2022/08/12 08:35:39;;;;;;;20.23;5.82;;;;;;;26.85;48.56;101891.94;5046351;28;20028;-47
2022/08/12 08:38:10;;;;;;;16.63;5.80;;;;;;;26.83;46.00;101883.09;5055719;28;20070;-48
2022/08/12 08:43:21;;;;;;;17.17;5.35;;;;;;;27.14;43.29;101884.50;5036529;28;20061;-50
2022/08/12 08:45:47;;;;;;;11.25;5.53;;;;;;;27.30;43.50;101890.28;5040853;28;20020;-48
2022/08/12 08:48:13;;;;;;;17.15;5.78;;;;;;;27.42;43.59;101895.69;5046838;28;20235;-46
2022/08/12 08:50:38;;;;;;;26.02;5.30;;;;;;;27.52;43.26;101890.38;5056071;28;20046;-48
2022/08/12 08:53:05;;;;;;;11.73;5.40;;;;;;;27.68;44.46;101891.44;5055140;28;20137;-46
2022/08/12 08:55:30;;;;;;;20.65;4.93;;;;;;;27.76;45.73;101899.25;5050516;28;20614;-49
2022/08/12 08:57:57;;;;;;;19.20;5.03;;;;;;;27.83;40.84;101893.59;5036344;28;20021;-51
2022/08/12 09:00:23;;;;;;;15.35;5.63;;;;;;;28.04;41.81;101900.25;5032652;28;20219;-51
2022/08/12 09:02:48;;;;;;;18.38;4.82;;;;;;;28.17;42.74;101897.13;5049686;28;20103;-49
2022/08/12 09:05:14;;;;;;;9.85;5.03;;;;;;;28.23;40.39;101893.38;5055512;28;20089;-50
2022/08/12 09:07:44;;;;;;;15.30;4.63;;;;;;;28.44;41.27;101899.13;5054836;28;20097;-50
2022/08/12 09:10:11;;;;;;;8.10;4.57;;;;;;;28.51;40.32;101891.50;5037243;28;20033;-51
2022/08/12 09:15:24;;;;;;;10.30;5.03;;;;;;;28.64;41.53;101887.56;5034297;28;20093;-47
2022/08/12 09:17:59;;;;;;;10.73;4.93;;;;;;;28.72;39.90;101880.75;5038966;28;20021;-48
2022/08/12 09:20:28;;;;;;;13.52;5.15;;;;;;;28.84;42.25;101881.47;5035232;28;20108;-49
2022/08/12 09:22:55;;;;;;;13.80;4.80;;;;;;;29.01;41.86;101879.44;5052394;28;20892;-47
2022/08/12 09:25:22;;;;;;;14.77;4.65;;;;;;;29.14;40.15;101880.94;5050960;28;20050;-48
2022/08/12 09:27:50;;;;;;;11.82;4.60;;;;;;;29.11;39.17;101881.47;5050605;28;20043;-51
2022/08/12 09:30:16;;;;;;;12.40;4.53;;;;;;;29.28;41.25;101886.03;5034270;28;20035;-50
2022/08/12 09:32:49;;;;;;;16.20;5.15;;;;;;;29.35;37.74;101887.47;5035791;28;20028;-47
2022/08/12 09:35:26;;;;;;;9.07;4.50;;;;;;;29.43;37.59;101883.41;5034991;28;20407;-49
2022/08/12 09:37:54;;;;;;;10.60;4.30;;;;;;;29.58;38.43;101878.03;5049927;28;20522;-50
2022/08/12 09:40:22;;;;;;;17.77;4.55;;;;;;;29.73;39.08;101877.28;5049589;28;20025;-51
2022/08/12 09:45:33;;;;;;;10.57;4.07;;;;;;;29.98;38.41;101872.25;5052891;28;20572;-49
2022/08/12 09:48:05;;;;;;;11.35;3.85;;;;;;;30.15;37.01;101869.31;5042411;28;20021;-50
2022/08/12 09:50:31;;;;;;;12.30;3.90;;;;;;;30.16;33.72;101871.78;5049600;28;20210;-49
2022/08/12 09:53:12;;;;;;;6.65;3.45;;;;;;;30.25;34.01;101866.59;5035449;28;20155;-47
2022/08/12 09:55:46;;;;;;;14.40;3.60;;;;;;;30.25;34.43;101866.59;5032897;28;20493;-51
2022/08/12 09:58:12;;;;;;;16.42;3.72;;;;;;;30.31;34.05;101862.72;5035406;28;20039;-50
2022/08/12 10:00:37;;;;;;;8.73;3.90;;;;;;;30.44;32.35;101864.19;5033510;28;20104;-49
2022/08/12 10:03:09;;;;;;;10.60;3.53;;;;;;;30.58;34.29;101862.56;5035629;28;20255;-49
2022/08/12 10:05:45;;;;;;;11.68;3.55;;;;;;;30.64;33.35;101857.91;5034931;28;20475;-51
2022/08/12 10:08:13;;;;;;;7.35;3.55;;;;;;;30.76;35.09;101852.97;5034031;28;20047;-46
2022/08/12 10:13:40;;;;;;;7.35;3.10;;;;;;;30.80;32.43;101854.06;5036258;28;20702;-50
2022/08/12 10:13:42;;;;;;;15.50;3.67;;;;;;;30.79;32.30;101846.91;5047112;28;20033;-46
2022/08/12 10:16:21;;;;;;;11.73;3.65;;;;;;;31.12;36.19;101850.28;5032519;28;20025;-48
2022/08/12 10:18:56;;;;;;;8.82;3.22;;;;;;;31.21;36.20;101843.13;5034704;28;20029;-47
2022/08/12 10:21:40;;;;;;;5.60;2.78;;;;;;;31.31;32.35;101845.03;5051264;28;20035;-47
2022/08/12 10:24:11;;;;;;;9.32;3.13;;;;;;;31.40;33.12;101840.63;5047965;28;20028;-51
2022/08/12 10:29:38;;;;;;;12.52;3.10;;;;;;;31.36;29.41;101841.44;5038803;28;20658;-49
2022/08/12 10:32:18;;;;;;;5.68;2.90;;;;;;;31.47;32.93;101837.56;5034820;28;20024;-50
2022/08/12 10:34:44;;;;;;;;;;;;;;;31.69;30.49;101836.44;5039702;28;20225;-50
2022/08/12 10:37:09;;;;;;;7.97;3.10;;;;;;;31.78;28.38;101829.25;5038481;28;19909;-47
2022/08/12 10:39:38;;;;;;;12.02;3.20;;;;;;;31.75;28.49;101825.09;5039091;28;20122;-48
2022/08/12 10:44:55;;;;;;;7.88;3.13;;;;;;;31.94;27.55;101821.72;5041916;28;20101;-47
2022/08/12 10:47:20;;;;;;;8.60;3.28;;;;;;;32.10;27.64;101814.25;5050453;28;20028;-50
2022/08/12 10:49:48;;;;;;;7.80;2.93;;;;;;;32.17;27.43;101817.50;5058007;28;20077;-49
2022/08/12 10:52:14;;;;;;;9.20;3.20;;;;;;;32.19;27.88;101807.00;5038768;28;20268;-52
2022/08/12 10:54:41;;;;;;;9.57;3.13;;;;;;;32.26;27.42;101809.44;5042574;28;20305;-48
2022/08/12 10:57:08;;;;;;;9.00;2.90;;;;;;;32.33;27.58;101796.13;5036706;28;20515;-48
2022/08/12 10:59:33;;;;;;;6.28;3.03;;;;;;;32.37;27.16;101796.38;5038736;28;20020;-47
2022/08/12 11:02:00;;;;;;;11.57;2.83;;;;;;;32.32;27.42;101798.09;5053902;28;20035;-51
2022/08/12 11:04:28;;;;;;;8.35;2.85;;;;;;;32.26;26.64;101790.91;5055127;28;20244;-50
2022/08/12 11:06:54;;;;;;;7.20;3.08;;;;;;;32.15;26.20;101798.44;5038996;28;20452;-46
2022/08/12 11:09:31;;;;;;;5.85;3.30;;;;;;;32.30;26.79;101797.53;5038069;28;20312;-48
2022/08/12 11:11:58;;;;;;;5.38;2.80;;;;;;;32.49;27.69;101781.09;5037402;28;20408;-50
2022/08/12 11:14:28;;;;;;;7.40;2.72;;;;;;;32.67;28.85;101787.94;5037782;28;20025;-50
2022/08/12 11:16:56;;;;;;;7.25;3.20;;;;;;;32.79;27.67;101782.03;5035286;28;20460;-51
2022/08/12 11:19:22;;;;;;;9.40;3.03;;;;;;;32.90;27.14;101775.28;5040562;28;20327;-48
2022/08/12 11:21:48;;;;;;;6.90;3.05;;;;;;;32.84;25.09;101770.94;5046108;28;20032;-48
2022/08/12 11:24:13;;;;;;;6.28;2.70;;;;;;;32.89;27.12;101770.03;5057542;28;20451;-50
2022/08/12 11:26:38;;;;;;;8.73;2.97;;;;;;;33.00;26.66;101771.59;5045664;28;20316;-48
2022/08/12 11:29:03;;;;;;;5.97;3.00;;;;;;;33.20;25.98;101765.09;5039881;28;20311;-51
2022/08/12 11:31:29;;;;;;;9.07;2.87;;;;;;;33.25;25.84;101769.72;5051260;28;20271;-47
2022/08/12 11:33:54;;;;;;;5.60;3.20;;;;;;;33.06;25.54;101764.06;5054388;28;20776;-49
2022/08/12 11:36:19;;;;;;;8.20;2.97;;;;;;;33.29;27.04;101770.81;5037276;28;20263;-52
2022/08/12 11:38:45;;;;;;;20.13;3.50;;;;;;;33.31;25.75;101765.78;5038359;28;20032;-51
2022/08/12 11:41:10;;;;;;;9.33;3.50;;;;;;;33.14;24.61;101759.84;5036463;28;20025;-49
2022/08/12 11:43:35;;;;;;;10.02;3.20;;;;;;;32.88;25.46;101763.69;5035095;28;20599;-51
2022/08/12 11:46:01;;;;;;;10.63;3.10;;;;;;;33.02;25.88;101763.03;5036778;28;20630;-50
2022/08/12 11:48:26;;;;;;;8.35;3.10;;;;;;;33.23;28.72;101758.13;5037680;28;20102;-52
2022/08/12 11:50:52;;;;;;;5.55;3.20;;;;;;;33.22;25.61;101753.72;5040481;28;20024;-52
2022/08/12 11:53:17;;;;;;;10.07;3.03;;;;;;;33.33;25.43;101746.94;5036255;28;20120;-50
2022/08/12 11:55:42;;;;;;;10.07;3.28;;;;;;;33.40;25.80;101752.97;5046225;28;20329;-49
2022/08/12 11:58:08;;;;;;;9.37;3.33;;;;;;;33.55;24.98;101748.38;5056230;28;20471;-49
2022/08/12 12:00:34;;;;;;;11.50;3.20;;;;;;;33.48;25.61;101737.63;5050220;28;20457;-51
2022/08/12 12:03:00;;;;;;;11.25;3.17;;;;;;;33.56;26.61;101739.75;5049464;28;20025;-49
2022/08/12 12:05:25;;;;;;;11.30;3.42;;;;;;;33.67;25.89;101739.63;5043245;28;20035;-50
2022/08/12 12:07:50;;;;;;;12.98;3.28;;;;;;;33.70;26.90;101737.13;5055733;28;20024;-51
2022/08/12 12:10:18;;;;;;;4.88;3.13;;;;;;;33.81;26.18;101740.56;5051620;28;20224;-50
2022/08/12 12:12:44;;;;;;;7.57;3.10;;;;;;;33.84;24.54;101734.44;5054016;28;20119;-51
2022/08/12 12:15:11;;;;;;;8.98;3.17;;;;;;;33.76;24.19;101727.63;5040415;28;20641;-52
2022/08/12 12:17:38;;;;;;;14.32;3.47;;;;;;;33.79;24.53;101723.44;5036237;28;20037;-51
2022/08/12 12:20:08;;;;;;;6.78;3.15;;;;;;;33.89;24.79;101733.56;5035796;28;20056;-50
2022/08/12 12:22:33;;;;;;;7.72;3.20;;;;;;;34.00;24.54;101721.22;5037097;28;20036;-49
2022/08/12 12:24:58;;;;;;;8.13;3.10;;;;;;;34.17;25.83;101727.06;5036485;28;20021;-50
2022/08/12 12:27:23;;;;;;;14.48;3.20;;;;;;;34.24;24.91;101725.91;5037285;28;20029;-49
2022/08/12 12:29:49;;;;;;;7.93;3.30;;;;;;;34.28;23.45;101713.88;5036931;28;20032;-48
2022/08/12 12:32:14;;;;;;;5.82;2.88;;;;;;;34.13;23.97;101711.31;5034328;28;20264;-52
2022/08/12 12:34:39;;;;;;;13.82;3.00;;;;;;;34.22;24.07;101715.09;5036656;28;20157;-45
2022/08/12 12:37:09;;;;;;;10.95;3.08;;;;;;;34.27;23.73;101712.25;5043145;28;20498;-49
2022/08/12 12:39:35;;;;;;;11.02;3.13;;;;;;;34.58;24.07;101713.72;5056799;28;20077;-48
2022/08/12 12:42:00;;;;;;;8.60;3.10;;;;;;;34.58;23.86;101702.63;5045424;28;20033;-51
2022/08/12 12:44:25;;;;;;;8.13;2.93;;;;;;;34.69;23.65;101698.50;5036706;28;20036;-47
2022/08/12 12:46:51;;;;;;;8.03;2.93;;;;;;;34.73;22.42;101699.59;5037759;28;20374;-51
2022/08/12 12:49:16;;;;;;;8.15;2.88;;;;;;;35.15;25.35;101705.19;5056756;28;20286;-51
2022/08/12 12:51:42;;;;;;;10.35;2.80;;;;;;;35.61;24.51;101693.16;5055457;28;20114;-48
2022/08/12 12:54:09;;;;;;;5.85;3.13;;;;;;;35.99;22.08;101702.06;5054941;28;20029;-47
2022/08/12 12:56:39;;;;;;;9.68;2.97;;;;;;;36.53;21.09;101702.19;5047626;28;20128;-49
2022/08/12 12:59:04;;;;;;;;;;;;;;;37.23;20.83;101699.00;5036247;28;20029;-49
2022/08/12 13:01:30;;;;;;;11.82;3.10;;;;;;;37.71;19.77;101692.59;5046907;28;20075;-50
2022/08/12 13:03:56;;;;;;;10.77;3.17;;;;;;;38.44;18.64;101687.19;5055891;28;20033;-49
2022/08/12 13:06:24;;;;;;;7.28;2.90;;;;;;;39.15;18.99;101685.84;5055687;28;20031;-45